Poulton-le-Fylde, United Kingdom
Current Conditions -  °F | °C
As of 5:50 PM on Sunday 25 Jan 2015 (Local Time) from EGNH Reporting Station
Haze Haze  
Wind Chill: 40°   Ceiling: 100
Heat Index: 46°   Visibility: 1.5mi
Dew Point: 45°   Wind: 15mph
Humidity: 93%   Direction: 230°SW
Pressure: 30.21"   Gusts: NA
Location:  53.83°N, 2.98°W
Report Text: EGNH 251750Z 23013KT 2500 1000N BR OVC001 08/07 Q1023
Loading
Personal Weather Stations






























Interactive Weather Map New forecast layout! Learn more

10-Day Weather Forecast

Advertisements
Track Severe Weather on mobile